Time;durP1;ratioP1;P1;durP2;ratioP2;P2;SDS_P1;SDS_P2;PMS_P1;PMS_P2;Temp;Humidity;BMP_temperature;BMP_pressure;BME280_temperature;BME280_humidity;BME280_pressure;Samples;Min_cycle;Max_cycle;Signal;HPM_P1;HPM_P2
2024/03/18 00:02:10;;;;;;;;;;;;;;;15.85;62.93;100961.00;5096365;28;19921;-84
2024/03/18 00:04:59;;;;;;;;;;;;;;;15.89;62.73;100953.72;5076197;28;20309;-83
2024/03/18 00:07:49;;;;;;;;;;;;;;;15.83;62.27;100955.91;5096231;28;19916;-84
2024/03/18 00:10:41;;;;;;;;;;;;;;;15.81;62.29;100968.34;5095584;28;19924;-84
2024/03/18 00:13:33;;;;;;;;;;;;;;;15.78;62.20;100966.28;5067143;28;19924;-83
2024/03/18 00:16:25;;;;;;;;;;;;;;;15.69;62.26;100963.69;5065276;28;19924;-85
2024/03/18 00:19:12;;;;;;;;;;;;;;;15.48;62.89;100943.78;5095561;28;19917;-85
2024/03/18 00:22:04;;;;;;;;;;;;;;;15.40;63.43;100937.25;5067406;28;19916;-82
2024/03/18 00:24:57;;;;;;;;;;;;;;;15.43;63.18;100934.97;5091657;28;19921;-84
2024/03/18 00:27:46;;;;;;;;;;;;;;;15.55;63.00;100937.72;5067296;28;19916;-85
2024/03/18 00:30:39;;;;;;;;;;;;;;;15.59;62.83;100927.69;5081040;28;19916;-85
2024/03/18 00:33:31;;;;;;;;;;;;;;;15.58;62.93;100926.09;5067041;28;20385;-84
2024/03/18 00:36:20;;;;;;;;;;;;;;;15.50;62.98;100924.22;5095462;28;19920;-83
2024/03/18 00:39:12;;;;;;;;;;;;;;;15.36;62.94;100930.84;5065916;28;19921;-83
2024/03/18 00:42:02;;;;;;;;;;;;;;;15.17;62.80;100933.34;5075433;28;19917;-83
2024/03/18 00:44:54;;;;;;;;;;;;;;;15.00;64.00;100928.06;5091121;28;19920;-85
2024/03/18 00:47:46;;;;;;;;;;;;;;;14.86;64.54;100922.09;5066833;28;19917;-83
2024/03/18 00:50:38;;;;;;;;;;;;;;;14.83;64.72;100912.63;5062249;28;20289;-84
2024/03/18 00:53:30;;;;;;;;;;;;;;;14.76;64.67;100920.59;5075166;28;19916;-85
2024/03/18 00:56:22;;;;;;;;;;;;;;;14.86;64.83;100920.19;5067849;28;19920;-86
2024/03/18 00:59:14;;;;;;;;;;;;;;;14.97;64.72;100918.59;5094763;28;20397;-83
2024/03/18 01:02:06;;;;;;;;;;;;;;;15.04;64.30;100918.03;5095135;28;19916;-83
2024/03/18 01:04:59;;;;;;;;;;;;;;;15.03;64.47;100915.66;5090697;28;19921;-83
2024/03/18 01:07:51;;;;;;;;;;;;;;;15.08;64.23;100908.00;5075003;28;19916;-82
2024/03/18 01:10:38;;;;;;;;;;;;;;;15.02;64.00;100898.41;5094472;28;19920;-85
2024/03/18 01:13:32;;;;;;;;;;;;;;;15.08;64.13;100899.78;5066436;28;19917;-83
2024/03/18 01:16:25;;;;;;;;;;;;;;;15.18;64.57;100899.34;5094728;28;20304;-83
2024/03/18 01:19:12;;;;;;;;;;;;;;;15.22;64.14;100891.25;5065871;28;19916;-85
2024/03/18 01:22:03;;;;;;;;;;;;;;;15.27;64.17;100894.56;5094800;28;19916;-85
2024/03/18 01:24:53;;;;;;;;;;;;;;;15.24;63.98;100889.75;5062030;28;19921;-84
2024/03/18 01:27:48;;;;;;;;;;;;;;;15.20;63.90;100899.78;5094596;28;19917;-84
2024/03/18 01:30:40;;;;;;;;;;;;;;;15.20;63.71;100885.28;5073961;28;19917;-83
2024/03/18 01:33:27;;;;;;;;;;;;;;;14.97;64.25;100882.19;5073888;28;20297;-83
2024/03/18 01:36:19;;;;;;;;;;;;;;;14.76;64.83;100879.53;5065599;28;20456;-84
2024/03/18 01:39:11;;;;;;;;;;;;;;;14.61;65.68;100884.88;5093755;28;20484;-84
2024/03/18 01:42:00;;;;;;;;;;;;;;;14.62;65.41;100886.47;5065518;28;19920;-85
2024/03/18 01:44:58;;;;;;;;;;;;;;;14.76;65.29;100882.28;5074021;28;20317;-83
2024/03/18 01:47:45;;;;;;;;;;;;;;;14.90;65.09;100873.75;5065633;28;19916;-84
2024/03/18 01:50:37;;;;;;;;;;;;;;;14.98;64.85;100875.59;5078425;28;19916;-87
2024/03/18 01:53:32;;;;;;;;;;;;;;;14.78;65.10;100868.25;5073885;28;19916;-84
2024/03/18 01:56:22;;;;;;;;;;;;;;;14.74;65.48;100864.56;5065284;28;19916;-84
2024/03/18 01:59:15;;;;;;;;;;;;;;;14.75;65.66;100860.72;5093535;28;19916;-85
2024/03/18 02:02:07;;;;;;;;;;;;;;;14.74;65.96;100859.91;5065596;28;19916;-82
2024/03/18 02:04:59;;;;;;;;;;;;;;;14.81;65.95;100854.69;5061048;28;19921;-85
2024/03/18 02:07:51;;;;;;;;;;;;;;;14.73;66.20;100838.38;5093859;28;19916;-85
2024/03/18 02:10:40;;;;;;;;;;;;;;;14.73;66.07;100841.09;5093888;28;19916;-85
2024/03/18 02:13:32;;;;;;;;;;;;;;;14.59;66.01;100844.13;5065113;28;19921;-83
2024/03/18 02:16:27;;;;;;;;;;;;;;;14.61;66.36;100841.88;5093713;28;19917;-83
2024/03/18 02:19:19;;;;;;;;;;;;;;;14.55;66.70;100845.97;5093199;28;19916;-85
2024/03/18 02:22:11;;;;;;;;;;;;;;;14.71;66.53;100841.44;5061156;28;19916;-82
2024/03/18 02:25:03;;;;;;;;;;;;;;;14.72;65.85;100834.81;5087227;28;19920;-83
2024/03/18 02:27:55;;;;;;;;;;;;;;;14.66;66.29;100836.19;5065029;28;19917;-84
2024/03/18 02:30:44;;;;;;;;;;;;;;;14.72;66.25;100829.34;5093037;28;19916;-85
2024/03/18 02:33:36;;;;;;;;;;;;;;;14.63;66.65;100828.63;5064594;28;20297;-85
2024/03/18 02:36:28;;;;;;;;;;;;;;;14.64;66.88;100832.97;5073190;28;19916;-85
2024/03/18 02:39:18;;;;;;;;;;;;;;;14.72;66.60;100825.81;5064711;28;19916;-84
2024/03/18 02:42:08;;;;;;;;;;;;;;;14.59;67.01;100824.19;5091114;28;19916;-85
2024/03/18 02:44:57;;;;;;;;;;;;;;;14.52;67.09;100820.09;5088971;28;19920;-84
2024/03/18 02:47:49;;;;;;;;;;;;;;;14.45;67.53;100811.63;5093085;28;19916;-84
2024/03/18 02:50:49;;;;;;;;;;;;;;;14.38;67.93;100813.28;5077260;28;19916;-83
2024/03/18 02:53:41;;;;;;;;;;;;;;;14.31;68.33;100813.03;5072973;28;19916;-83
2024/03/18 02:56:30;;;;;;;;;;;;;;;14.33;68.64;100811.53;5093338;28;20285;-83
2024/03/18 02:59:20;;;;;;;;;;;;;;;14.31;68.80;100808.38;5064400;28;20377;-83
2024/03/18 03:02:12;;;;;;;;;;;;;;;14.32;69.14;100803.69;5092715;28;20317;-82
2024/03/18 03:05:02;;;;;;;;;;;;;;;14.30;69.15;100804.03;5072747;28;19920;-83
2024/03/18 03:07:51;;;;;;;;;;;;;;;14.35;69.17;100806.56;5064678;28;19916;-83
2024/03/18 03:10:43;;;;;;;;;;;;;;;14.35;69.02;100806.56;5079368;28;19917;-82
2024/03/18 03:13:35;;;;;;;;;;;;;;;14.40;68.83;100811.03;5092606;28;19917;-83
2024/03/18 03:16:24;;;;;;;;;;;;;;;14.47;68.19;100800.34;5064332;28;19916;-83
2024/03/18 03:19:16;;;;;;;;;;;;;;;14.53;67.95;100797.03;5078349;28;20455;-84
2024/03/18 03:22:08;;;;;;;;;;;;;;;14.48;67.75;100793.72;5064546;28;19916;-84
2024/03/18 03:25:00;;;;;;;;;;;;;;;14.55;67.65;100792.03;5059997;28;19921;-82
2024/03/18 03:27:52;;;;;;;;;;;;;;;14.49;67.74;100793.38;5092555;28;20321;-85
2024/03/18 03:30:44;;;;;;;;;;;;;;;14.52;67.26;100794.66;5072400;28;19917;-84
2024/03/18 03:33:34;;;;;;;;;;;;;;;14.54;67.13;100795.91;5092317;28;19916;-83
2024/03/18 03:36:25;;;;;;;;;;;;;;;14.41;67.64;100791.56;5064157;28;20285;-84
2024/03/18 03:39:17;;;;;;;;;;;;;;;14.27;68.21;100785.56;5092358;28;19916;-84
2024/03/18 03:42:16;;;;;;;;;;;;;;;14.18;68.40;100786.75;5072467;28;19916;-84
2024/03/18 03:45:08;;;;;;;;;;;;;;;14.19;68.66;100785.63;5072042;28;19920;-84
2024/03/18 03:47:55;;;;;;;;;;;;;;;14.33;68.38;100789.66;5064029;28;20377;-84
2024/03/18 03:50:47;;;;;;;;;;;;;;;14.46;67.90;100788.59;5090692;28;20329;-84
2024/03/18 03:53:35;;;;;;;;;;;;;;;14.52;67.55;100800.94;5060468;28;20405;-84
2024/03/18 03:56:26;;;;;;;;;;;;;;;14.55;67.56;100799.44;5092256;28;19916;-84
2024/03/18 03:59:13;;;;;;;;;;;;;;;14.53;67.00;100791.56;5063432;28;20390;-84
2024/03/18 04:02:09;;;;;;;;;;;;;;;14.62;67.15;100790.66;5091963;28;19917;-84
2024/03/18 04:05:01;;;;;;;;;;;;;;;14.66;66.94;100792.38;5071767;28;19920;-84
2024/03/18 04:07:53;;;;;;;;;;;;;;;14.63;67.21;100790.31;5091779;28;19954;-84
2024/03/18 04:10:45;;;;;;;;;;;;;;;14.68;67.10;100784.63;5078128;28;20396;-84
2024/03/18 04:13:37;;;;;;;;;;;;;;;14.67;67.12;100782.25;5097402;28;19916;-83
2024/03/18 04:16:30;;;;;;;;;;;;;;;14.62;66.94;100774.25;5087032;28;19912;-84
2024/03/18 04:19:27;;;;;;;;;;;;;;;14.62;66.83;100774.25;5096690;28;19924;-84
2024/03/18 04:22:19;;;;;;;;;;;;;;;14.64;66.97;100766.47;5086931;28;19920;-83
2024/03/18 04:25:11;;;;;;;;;;;;;;;14.67;66.45;100785.78;5082423;28;20320;-84
2024/03/18 04:28:07;;;;;;;;;;;;;;;14.52;66.46;100786.44;5095463;28;19920;-84
2024/03/18 04:30:58;;;;;;;;;;;;;;;14.38;67.53;100775.00;5094985;28;19920;-84
2024/03/18 04:33:48;;;;;;;;;;;;;;;14.37;68.12;100782.44;5085758;28;19916;-84
2024/03/18 04:36:40;;;;;;;;;;;;;;;14.36;68.60;100775.34;5087056;28;19916;-84
2024/03/18 04:39:32;;;;;;;;;;;;;;;14.44;68.60;100773.66;5086845;28;19920;-84
2024/03/18 04:42:25;;;;;;;;;;;;;;;14.38;68.68;100773.06;5096075;28;19916;-83
2024/03/18 04:45:20;;;;;;;;;;;;;;;14.44;68.99;100770.91;5082610;28;19920;-84
2024/03/18 04:48:12;;;;;;;;;;;;;;;14.42;68.95;100771.28;5089474;28;19923;-85
2024/03/18 04:51:04;;;;;;;;;;;;;;;14.44;68.71;100766.25;5096065;28;19924;-84
2024/03/18 04:53:51;;;;;;;;;;;;;;;14.47;68.45;100768.31;5101286;28;20316;-84
2024/03/18 04:56:43;;;;;;;;;;;;;;;14.51;68.40;100768.41;5089735;28;19920;-84
2024/03/18 04:59:35;;;;;;;;;;;;;;;14.54;68.34;100771.28;5086376;28;20312;-84
2024/03/18 05:02:27;;;;;;;;;;;;;;;14.56;68.49;100776.41;5086802;28;19916;-84
2024/03/18 05:05:14;;;;;;;;;;;;;;;14.56;68.82;100776.41;5081479;28;19920;-84
2024/03/18 05:08:03;;;;;;;;;;;;;;;14.61;68.54;100767.19;5103092;28;20389;-84
2024/03/18 05:10:56;;;;;;;;;;;;;;;14.55;68.45;100778.34;5094649;28;19916;-84
2024/03/18 05:13:42;;;;;;;;;;;;;;;14.51;68.77;100774.69;5094248;28;19917;-83
2024/03/18 05:16:38;;;;;;;;;;;;;;;14.48;68.85;100769.88;5074728;28;19916;-84
2024/03/18 05:19:31;;;;;;;;;;;;;;;14.55;68.85;100767.41;5094339;28;19917;-83
2024/03/18 05:22:23;;;;;;;;;;;;;;;14.48;69.13;100761.69;5085020;28;19920;-84
2024/03/18 05:25:15;;;;;;;;;;;;;;;14.59;68.81;100758.50;5094915;28;19920;-82
2024/03/18 05:28:07;;;;;;;;;;;;;;;14.58;69.22;100751.44;5094438;28;19916;-83
2024/03/18 05:30:57;;;;;;;;;;;;;;;14.68;68.81;100757.25;5095075;28;19916;-83
2024/03/18 05:33:46;;;;;;;;;;;;;;;14.61;68.60;100753.50;5088748;28;20923;-83
2024/03/18 05:36:38;;;;;;;;;;;;;;;14.64;68.82;100747.31;5065536;28;19920;-83
2024/03/18 05:39:28;;;;;;;;;;;;;;;14.68;69.04;100751.00;5065497;28;20378;-84
2024/03/18 05:42:17;;;;;;;;;;;;;;;14.65;69.45;100759.88;5074503;28;19916;-84
2024/03/18 05:45:09;;;;;;;;;;;;;;;14.65;69.76;100757.13;5074944;28;19924;-84
2024/03/18 05:47:59;;;;;;;;;;;;;;;14.60;69.50;100757.34;5073857;28;19921;-82
2024/03/18 05:50:48;;;;;;;;;;;;;;;14.59;69.64;100759.28;5090923;28;19916;-83
2024/03/18 05:53:40;;;;;;;;;;;;;;;14.62;69.42;100757.84;5084942;28;19916;-86
2024/03/18 05:56:32;;;;;;;;;;;;;;;14.63;69.41;100752.00;5093765;28;19909;-82
2024/03/18 05:59:21;;;;;;;;;;;;;;;14.62;69.60;100752.34;5083986;28;20301;-82
2024/03/18 06:02:18;;;;;;;;;;;;;;;14.60;69.34;100760.09;5096210;28;20339;-83
2024/03/18 06:05:10;;;;;;;;;;;;;;;14.48;69.45;100763.59;5113721;28;19919;-84
2024/03/18 06:08:02;;;;;;;;;;;;;;;14.47;69.99;100768.31;5113856;28;19919;-81
2024/03/18 06:10:54;;;;;;;;;;;;;;;14.53;69.81;100760.66;5112907;28;19916;-81
2024/03/18 06:13:46;;;;;;;;;;;;;;;14.54;70.08;100768.53;5118182;28;19916;-80
2024/03/18 06:16:42;;;;;;;;;;;;;;;14.56;70.14;100770.94;5117825;28;20385;-79
2024/03/18 06:19:34;;;;;;;;;;;;;;;14.49;70.46;100768.75;5115634;28;19915;-81
2024/03/18 06:22:36;;;;;;;;;;;;;;;14.54;70.56;100771.28;5113550;28;19916;-82
2024/03/18 06:28:35;;;;;;;;;;;;;;;14.64;70.92;100758.28;5085880;28;20400;-82
2024/03/18 06:31:27;;;;;;;;;;;;;;;14.66;70.40;100761.47;5119236;28;19915;-84
2024/03/18 06:34:24;;;;;;;;;;;;;;;14.67;70.62;100763.09;5095382;28;19916;-84
2024/03/18 06:37:16;;;;;;;;;;;;;;;14.69;70.82;100767.06;5075806;28;19916;-82
2024/03/18 06:40:15;;;;;;;;;;;;;;;14.68;70.71;100762.72;5059931;28;19916;-85
2024/03/18 06:43:07;;;;;;;;;;;;;;;14.79;70.66;100768.53;5058072;28;19920;-84
2024/03/18 06:45:59;;;;;;;;;;;;;;;14.84;70.62;100773.78;5060722;28;19920;-83
2024/03/18 06:48:51;;;;;;;;;;;;;;;14.77;70.92;100776.31;5059062;28;19917;-84
2024/03/18 06:51:43;;;;;;;;;;;;;;;14.83;71.06;100780.44;5074407;28;19920;-83
2024/03/18 06:54:34;;;;;;;;;;;;;;;14.78;71.30;100777.91;5068673;28;19924;-84
2024/03/18 06:57:26;;;;;;;;;;;;;;;14.73;71.72;100775.41;5097987;28;19916;-85
2024/03/18 07:00:19;;;;;;;;;;;;;;;14.76;72.05;100786.47;5111662;28;19916;-84
2024/03/18 07:03:11;;;;;;;;;;;;;;;14.83;72.28;100780.44;5115041;28;19916;-85
2024/03/18 07:06:05;;;;;;;;;;;;;;;14.88;71.96;100785.69;5111668;28;19928;-84
2024/03/18 07:08:57;;;;;;;;;;;;;;;14.94;72.06;100784.28;5115471;28;19916;-85
2024/03/18 07:11:49;;;;;;;;;;;;;;;14.94;72.28;100785.09;5113667;28;19916;-85
2024/03/18 07:14:41;;;;;;;;;;;;;;;15.04;72.07;100794.78;5111041;28;19915;-85
2024/03/18 07:17:33;;;;;;;;;;;;;;;15.06;71.99;100792.50;5098422;28;20296;-83
2024/03/18 07:20:29;;;;;;;;;;;;;;;15.12;71.67;100791.13;5075006;28;19916;-85
2024/03/18 07:23:20;;;;;;;;;;;;;;;15.11;71.72;100796.94;5115926;28;19916;-83
2024/03/18 07:26:12;;;;;;;;;;;;;;;15.17;71.00;100796.38;5114650;28;19919;-83
2024/03/18 07:29:02;;;;;;;;;;;;;;;15.26;70.62;100805.28;5111206;28;19919;-84
2024/03/18 07:31:56;;;;;;;;;;;;;;;15.33;70.39;100811.00;5111465;28;19920;-85
2024/03/18 07:34:45;;;;;;;;;;;;;;;15.34;70.41;100803.53;5113196;28;19920;-85
2024/03/18 07:37:37;;;;;;;;;;;;;;;15.37;70.67;100797.38;5093938;28;19916;-82
2024/03/18 07:40:29;;;;;;;;;;;;;;;15.36;70.56;100798.53;5114098;28;19919;-83
2024/03/18 07:43:21;;;;;;;;;;;;;;;15.37;70.27;100787.22;5084262;28;19916;-83
2024/03/18 07:46:13;;;;;;;;;;;;;;;15.38;69.85;100783.34;5084039;28;20401;-83
2024/03/18 07:49:05;;;;;;;;;;;;;;;15.42;69.80;100783.44;5085579;28;19920;-84
2024/03/18 07:51:56;;;;;;;;;;;;;;;15.47;69.49;100783.22;5083302;28;19916;-83
2024/03/18 07:54:48;;;;;;;;;;;;;;;15.48;69.51;100784.81;5089118;28;19916;-83
2024/03/18 07:57:40;;;;;;;;;;;;;;;15.49;69.37;100780.91;5077645;28;19916;-83
2024/03/18 08:00:30;;;;;;;;;;;;;;;15.52;69.54;100765.75;5102520;28;19916;-83
2024/03/18 08:03:21;;;;;;;;;;;;;;;15.49;69.73;100760.94;5116900;28;20310;-83
2024/03/18 08:06:13;;;;;;;;;;;;;;;15.47;70.00;100760.47;5100947;28;19923;-85
2024/03/18 08:09:05;;;;;;;;;;;;;;;15.55;69.93;100757.63;5104904;28;19938;-85
2024/03/18 08:11:57;;;;;;;;;;;;;;;15.52;70.28;100752.03;5101599;28;19927;-84
2024/03/18 08:14:49;;;;;;;;;;;;;;;15.62;70.13;100754.28;5079784;28;19916;-85
2024/03/18 08:17:41;;;;;;;;;;;;;;;15.55;70.41;100749.41;5091454;28;19915;-84
2024/03/18 08:20:33;;;;;;;;;;;;;;;15.58;70.66;100740.50;5093448;28;19916;-84
2024/03/18 08:23:22;;;;;;;;;;;;;;;15.71;70.38;100738.50;5100444;28;19915;-84
2024/03/18 08:26:17;;;;;;;;;;;;;;;15.44;71.28;100734.56;5088323;28;19923;-84
2024/03/18 08:29:09;;;;;;;;;;;;;;;15.57;70.66;100732.63;5093212;28;20392;-84
2024/03/18 08:32:01;;;;;;;;;;;;;;;15.56;71.14;100731.00;5115739;28;20372;-84
2024/03/18 08:34:53;;;;;;;;;;;;;;;15.57;71.08;100733.41;5116346;28;19920;-85
2024/03/18 08:37:43;;;;;;;;;;;;;;;15.53;71.08;100739.94;5114359;28;19916;-84
2024/03/18 08:40:35;;;;;;;;;;;;;;;15.66;70.36;100741.47;5117815;28;19916;-83
2024/03/18 08:43:22;;;;;;;;;;;;;;;15.71;70.16;100743.97;5116101;28;19916;-83
2024/03/18 08:46:15;;;;;;;;;;;;;;;15.71;70.22;100738.50;5113949;28;19924;-85
2024/03/18 08:49:07;;;;;;;;;;;;;;;15.80;69.92;100744.63;5117039;28;19919;-84
2024/03/18 08:52:02;;;;;;;;;;;;;;;15.85;69.70;100740.84;5110467;28;19915;-84
2024/03/18 08:54:54;;;;;;;;;;;;;;;15.91;69.35;100736.69;5104147;28;19916;-84
2024/03/18 08:57:46;;;;;;;;;;;;;;;15.94;69.17;100739.56;5093277;28;19920;-83
2024/03/18 09:00:35;;;;;;;;;;;;;;;15.79;69.82;100735.63;5112717;28;19920;-82
2024/03/18 09:03:28;;;;;;;;;;;;;;;15.89;69.77;100723.34;5101306;28;19916;-83
2024/03/18 09:06:20;;;;;;;;;;;;;;;15.98;69.47;100721.25;5095267;28;19920;-82
2024/03/18 09:09:09;;;;;;;;;;;;;;;15.91;69.46;100709.25;5078338;28;19916;-82
2024/03/18 09:12:02;;;;;;;;;;;;;;;15.82;70.10;100712.19;5082134;28;19924;-81
2024/03/18 09:14:51;;;;;;;;;;;;;;;15.92;69.63;100706.19;5094146;28;19920;-80
2024/03/18 09:17:41;;;;;;;;;;;;;;;16.00;69.69;100701.69;5093419;28;20388;-79
2024/03/18 09:20:33;;;;;;;;;;;;;;;16.08;69.67;100706.19;5095736;28;19924;-79
2024/03/18 09:23:25;;;;;;;;;;;;;;;16.18;69.07;100711.16;5079475;28;19916;-81
2024/03/18 09:26:17;;;;;;;;;;;;;;;16.29;69.25;100717.72;5084675;28;19924;-81
2024/03/18 09:29:06;;;;;;;;;;;;;;;16.29;69.51;100719.69;5085383;28;19920;-82
2024/03/18 09:31:59;;;;;;;;;;;;;;;16.26;69.23;100716.47;5073077;28;19919;-82
2024/03/18 09:34:50;;;;;;;;;;;;;;;16.14;69.89;100727.56;5113068;28;20301;-81
2024/03/18 09:37:42;;;;;;;;;;;;;;;16.15;69.63;100734.59;5113156;28;20373;-82
2024/03/18 09:40:32;;;;;;;;;;;;;;;16.12;69.72;100731.78;5096609;28;19919;-80
2024/03/18 09:43:24;;;;;;;;;;;;;;;15.97;70.55;100733.34;5087109;28;19920;-82
2024/03/18 09:46:16;;;;;;;;;;;;;;;16.01;71.10;100733.44;5114493;28;19920;-83
2024/03/18 09:49:12;;;;;;;;;;;;;;;16.06;70.94;100736.72;5113980;28;19919;-83
2024/03/18 09:52:04;;;;;;;;;;;;;;;16.24;70.61;100731.72;5099951;28;19915;-82
2024/03/18 09:54:56;;;;;;;;;;;;;;;16.19;70.60;100731.97;5073124;28;19917;-83
2024/03/18 09:57:46;;;;;;;;;;;;;;;16.12;70.79;100729.84;5078819;28;19916;-83
2024/03/18 10:00:39;;;;;;;;;;;;;;;16.15;70.89;100731.88;5081265;28;19916;-82
2024/03/18 10:03:31;;;;;;;;;;;;;;;16.26;70.48;100721.97;5096162;28;20312;-82
2024/03/18 10:06:23;;;;;;;;;;;;;;;16.32;70.50;100717.00;5116056;28;19927;-82
2024/03/18 10:09:17;;;;;;;;;;;;;;;16.37;70.37;100713.22;5113523;28;19916;-83
2024/03/18 10:12:17;;;;;;;;;;;;;;;16.36;70.46;100717.91;5116664;28;19916;-81
2024/03/18 10:15:10;;;;;;;;;;;;;;;16.33;70.80;100717.81;5086853;28;20377;-81
2024/03/18 10:18:02;;;;;;;;;;;;;;;16.30;70.79;100715.78;5073647;28;19916;-83
2024/03/18 10:20:55;;;;;;;;;;;;;;;16.33;70.77;100717.81;5093492;28;19916;-85
2024/03/18 10:23:53;;;;;;;;;;;;;;;16.26;71.19;100711.00;5092854;28;19916;-84
2024/03/18 10:26:46;;;;;;;;;;;;;;;16.26;71.51;100708.25;5093515;28;20400;-84
2024/03/18 10:29:35;;;;;;;;;;;;;;;16.29;71.32;100705.97;5093554;28;19916;-83
2024/03/18 10:32:30;;;;;;;;;;;;;;;16.33;71.11;100704.09;5095391;28;19916;-83
2024/03/18 10:35:25;;;;;;;;;;;;;;;16.49;69.50;100696.66;5073501;28;19920;-85
2024/03/18 10:38:21;;;;;;;;;;;;;;;16.35;70.18;100693.56;5086674;28;19916;-83
2024/03/18 10:41:14;;;;;;;;;;;;;;;16.41;70.17;100694.88;5096089;28;20455;-84
2024/03/18 10:44:11;;;;;;;;;;;;;;;16.31;70.36;100700.91;5091496;28;19924;-84
2024/03/18 10:47:03;;;;;;;;;;;;;;;16.39;70.00;100699.94;5077001;28;19924;-84
2024/03/18 10:49:54;;;;;;;;;;;;;;;16.31;70.15;100689.91;5091171;28;20299;-84
2024/03/18 10:52:46;;;;;;;;;;;;;;;16.34;70.44;100684.53;5082599;28;19916;-83
2024/03/18 10:55:38;;;;;;;;;;;;;;;16.24;70.62;100685.88;5110945;28;19916;-83
2024/03/18 10:58:36;;;;;;;;;;;;;;;16.36;70.92;100684.16;5092023;28;19916;-83
2024/03/18 11:01:28;;;;;;;;;;;;;;;16.46;69.57;100680.88;5097828;28;19916;-84
2024/03/18 11:04:24;;;;;;;;;;;;;;;16.46;70.33;100675.38;5104785;28;19920;-84
2024/03/18 11:07:16;;;;;;;;;;;;;;;16.49;70.40;100674.69;5098476;28;20292;-84
2024/03/18 11:10:11;;;;;;;;;;;;;;;16.48;70.60;100664.88;5096764;28;19915;-84
2024/03/18 11:13:13;;;;;;;;;;;;;;;16.44;70.44;100661.25;5100311;28;19919;-83
2024/03/18 11:16:07;;;;;;;;;;;;;;;16.49;71.02;100659.03;5111634;28;19924;-86
2024/03/18 11:19:06;;;;;;;;;;;;;;;16.39;70.85;100653.28;5114851;28;19942;-84
2024/03/18 11:22:04;;;;;;;;;;;;;;;16.50;71.13;100648.84;5094607;28;19924;-86
2024/03/18 11:25:00;;;;;;;;;;;;;;;16.51;70.58;100642.97;5096743;28;20388;-86
2024/03/18 11:27:56;;;;;;;;;;;;;;;16.52;69.92;100641.03;5107432;28;19921;-85
2024/03/18 11:30:49;;;;;;;;;;;;;;;16.57;69.96;100638.00;5089224;28;20393;-87
2024/03/18 11:33:41;;;;;;;;;;;;;;;16.67;69.65;100632.00;5089358;28;19916;-85
2024/03/18 11:36:35;;;;;;;;;;;;;;;16.73;69.54;100630.56;5089247;28;19915;-86
2024/03/18 11:39:24;;;;;;;;;;;;;;;16.70;69.28;100625.00;5088999;28;19916;-85
2024/03/18 11:42:14;;;;;;;;;;;;;;;16.65;69.09;100623.34;5100567;28;19916;-86
2024/03/18 11:45:03;;;;;;;;;;;;;;;16.84;69.09;100612.38;5111231;28;20312;-87
2024/03/18 11:48:01;;;;;;;;;;;;;;;16.82;69.19;100614.69;5115429;28;20317;-86
2024/03/18 11:50:53;;;;;;;;;;;;;;;16.80;68.92;100607.97;5101360;28;20397;-86
2024/03/18 11:53:45;;;;;;;;;;;;;;;16.80;69.41;100605.22;5097583;28;19916;-85
2024/03/18 11:56:37;;;;;;;;;;;;;;;16.96;69.39;100600.47;5088758;28;20309;-86
2024/03/18 11:59:24;;;;;;;;;;;;;;;16.90;68.79;100590.91;5081082;28;19916;-84
2024/03/18 12:02:16;;;;;;;;;;;;;;;16.89;68.10;100584.63;5082684;28;19916;-86
2024/03/18 12:05:08;;;;;;;;;;;;;;;16.88;68.25;100580.28;5103849;28;19916;-86
2024/03/18 12:08:02;;;;;;;;;;;;;;;16.92;67.60;100580.34;5105750;28;19920;-86
2024/03/18 12:10:57;;;;;;;;;;;;;;;16.94;67.86;100575.31;5088211;28;20379;-86
2024/03/18 12:13:47;;;;;;;;;;;;;;;17.08;67.85;100581.09;5116765;28;19923;-86
2024/03/18 12:16:44;;;;;;;;;;;;;;;17.04;68.11;100566.47;5093018;28;20396;-85
2024/03/18 12:19:36;;;;;;;;;;;;;;;16.99;68.57;100575.03;5080271;28;19916;-86
2024/03/18 12:22:25;;;;;;;;;;;;;;;16.90;69.08;100569.75;5089649;28;19916;-85
2024/03/18 12:28:49;;;;;;;;;;;;;;;16.85;68.74;100572.78;5063286;28;19921;-84
2024/03/18 12:31:41;;;;;;;;;;;;;;;16.87;68.90;100573.19;5069141;28;19916;-86
2024/03/18 12:34:33;;;;;;;;;;;;;;;16.74;69.51;100571.75;5065509;28;19916;-85
2024/03/18 12:37:25;;;;;;;;;;;;;;;16.85;69.45;100581.03;5078333;28;20376;-83
2024/03/18 12:40:18;;;;;;;;;;;;;;;16.71;70.00;100571.69;5089159;28;19916;-86
2024/03/18 12:43:09;;;;;;;;;;;;;;;16.62;69.98;100569.94;5095653;28;20284;-86
2024/03/18 12:46:01;;;;;;;;;;;;;;;16.67;70.50;100569.66;5107484;28;19915;-84
2024/03/18 12:48:53;;;;;;;;;;;;;;;16.75;69.80;100562.38;5094593;28;19946;-84
2024/03/18 12:51:46;;;;;;;;;;;;;;;16.74;69.47;100559.97;5079241;28;19920;-84
2024/03/18 12:54:33;;;;;;;;;;;;;;;16.57;69.84;100550.16;5101175;28;19916;-84
2024/03/18 12:57:25;;;;;;;;;;;;;;;16.56;69.59;100554.84;5081876;28;19916;-85
2024/03/18 13:00:17;;;;;;;;;;;;;;;16.53;69.58;100550.09;5087704;28;20377;-85
2024/03/18 13:03:10;;;;;;;;;;;;;;;16.54;69.55;100553.63;5091413;28;19916;-85
2024/03/18 13:06:02;;;;;;;;;;;;;;;16.52;69.95;100551.25;5061396;28;19916;-84
2024/03/18 13:08:55;;;;;;;;;;;;;;;16.53;69.76;100554.78;5076326;28;20389;-88
2024/03/18 13:11:47;;;;;;;;;;;;;;;16.44;69.83;100552.25;5091659;28;19920;-85
2024/03/18 13:14:37;;;;;;;;;;;;;;;16.47;69.98;100547.97;5065447;28;19979;-85
2024/03/18 13:17:30;;;;;;;;;;;;;;;16.41;69.44;100544.72;5074678;28;19916;-86
2024/03/18 13:20:23;;;;;;;;;;;;;;;16.43;69.74;100536.13;5061084;28;19921;-85
2024/03/18 13:23:15;;;;;;;;;;;;;;;16.43;69.52;100545.16;5087618;28;19916;-86
2024/03/18 13:26:05;;;;;;;;;;;;;;;16.45;69.34;100537.38;5093102;28;20393;-86
2024/03/18 13:28:57;;;;;;;;;;;;;;;16.33;69.48;100537.50;5092171;28;19932;-87
2024/03/18 13:31:52;;;;;;;;;;;;;;;16.24;69.93;100540.44;5066371;28;20389;-86
2024/03/18 13:34:42;;;;;;;;;;;;;;;16.34;69.74;100528.13;5076054;28;20397;-86
2024/03/18 13:37:35;;;;;;;;;;;;;;;16.36;69.68;100520.28;5089840;28;19917;-86
2024/03/18 13:40:27;;;;;;;;;;;;;;;16.19;70.58;100521.50;5095709;28;19917;-87
2024/03/18 13:43:24;;;;;;;;;;;;;;;16.20;70.52;100523.09;5062871;28;19916;-85
2024/03/18 13:46:19;;;;;;;;;;;;;;;16.29;70.49;100528.38;5093625;28;19917;-86
2024/03/18 13:49:12;;;;;;;;;;;;;;;16.30;70.75;100526.44;5065440;28;19916;-85
2024/03/18 13:52:03;;;;;;;;;;;;;;;16.35;70.55;100523.41;5075289;28;19925;-85
2024/03/18 13:54:52;;;;;;;;;;;;;;;16.43;70.23;100525.94;5081439;28;19920;-85
2024/03/18 13:57:47;;;;;;;;;;;;;;;16.67;69.21;100527.66;5086280;28;19919;-85
2024/03/18 14:00:38;;;;;;;;;;;;;;;16.66;69.58;100526.06;5090507;28;20380;-84
2024/03/18 14:03:27;;;;;;;;;;;;;;;16.65;69.58;100524.50;5093568;28;20389;-84
2024/03/18 14:06:14;;;;;;;;;;;;;;;16.62;69.63;100517.75;5090692;28;19916;-85
2024/03/18 14:09:06;;;;;;;;;;;;;;;16.65;69.58;100519.00;5088125;28;19917;-84
2024/03/18 14:12:00;;;;;;;;;;;;;;;16.63;69.73;100518.56;5092615;28;19916;-85
2024/03/18 14:14:52;;;;;;;;;;;;;;;16.72;69.49;100505.41;5116589;28;19916;-85
2024/03/18 14:17:42;;;;;;;;;;;;;;;16.85;69.02;100509.59;5112261;28;19919;-85
2024/03/18 14:20:35;;;;;;;;;;;;;;;16.74;68.83;100505.84;5111642;28;19920;-85
2024/03/18 14:23:27;;;;;;;;;;;;;;;16.82;68.34;100502.06;5112378;28;19916;-85
2024/03/18 14:26:19;;;;;;;;;;;;;;;16.81;68.31;100502.47;5116587;28;20392;-86
2024/03/18 14:29:11;;;;;;;;;;;;;;;16.76;67.82;100487.03;5100134;28;19915;-86
2024/03/18 14:32:03;;;;;;;;;;;;;;;16.87;67.14;100490.81;5104791;28;19916;-85
2024/03/18 14:34:52;;;;;;;;;;;;;;;16.88;67.81;100488.84;5091004;28;20316;-85
2024/03/18 14:37:44;;;;;;;;;;;;;;;16.92;67.82;100489.72;5094090;28;19915;-85
2024/03/18 14:40:36;;;;;;;;;;;;;;;16.77;68.00;100488.63;5097161;28;19915;-86
2024/03/18 14:43:28;;;;;;;;;;;;;;;16.88;67.45;100488.84;5085532;28;19920;-85
2024/03/18 14:46:20;;;;;;;;;;;;;;;16.83;67.78;100492.69;5099197;28;19916;-86
2024/03/18 14:49:13;;;;;;;;;;;;;;;16.83;66.89;100478.97;5099332;28;19916;-85